sensor_id;sensor_type;location;lat;lon;timestamp;pressure;altitude;pressure_sealevel;temperature;humidity
48614;BME280;34408;51.426;5.444;2023-11-21T00:00:20;101012.03;;;10.50;69.60
48614;BME280;34408;51.426;5.444;2023-11-21T00:02:49;101018.84;;;10.53;69.61
48614;BME280;34408;51.426;5.444;2023-11-21T00:05:17;101020.09;;;10.50;69.62
48614;BME280;34408;51.426;5.444;2023-11-21T00:07:45;101017.41;;;10.50;69.84
48614;BME280;34408;51.426;5.444;2023-11-21T00:10:13;101023.59;;;10.51;69.63
48614;BME280;34408;51.426;5.444;2023-11-21T00:12:43;101021.13;;;10.49;69.79
48614;BME280;34408;51.426;5.444;2023-11-21T00:15:10;101028.38;;;10.49;69.91
48614;BME280;34408;51.426;5.444;2023-11-21T00:17:39;101027.75;;;10.47;69.97
48614;BME280;34408;51.426;5.444;2023-11-21T00:20:09;101033.97;;;10.47;70.13
48614;BME280;34408;51.426;5.444;2023-11-21T00:22:39;101039.56;;;10.46;69.98
48614;BME280;34408;51.426;5.444;2023-11-21T00:25:08;101034.19;;;10.46;69.96
48614;BME280;34408;51.426;5.444;2023-11-21T00:27:37;101034.19;;;10.46;69.96
48614;BME280;34408;51.426;5.444;2023-11-21T00:30:05;101036.25;;;10.43;70.16
48614;BME280;34408;51.426;5.444;2023-11-21T00:32:33;101035.44;;;10.43;70.11
48614;BME280;34408;51.426;5.444;2023-11-21T00:35:01;101035.44;;;10.43;69.98
48614;BME280;34408;51.426;5.444;2023-11-21T00:37:30;101034.59;;;10.42;70.12
48614;BME280;34408;51.426;5.444;2023-11-21T00:39:58;101030.06;;;10.43;69.84
48614;BME280;34408;51.426;5.444;2023-11-21T00:42:27;101007.25;;;10.27;69.81
48614;BME280;34408;51.426;5.444;2023-11-21T00:44:54;101035.66;;;10.41;69.79
48614;BME280;34408;51.426;5.444;2023-11-21T00:47:22;101035.91;;;10.40;69.84
48614;BME280;34408;51.426;5.444;2023-11-21T00:49:50;101039.63;;;10.39;69.85
48614;BME280;34408;51.426;5.444;2023-11-21T00:52:18;101041.28;;;10.40;69.84
48614;BME280;34408;51.426;5.444;2023-11-21T00:54:47;101041.50;;;10.38;69.78
48614;BME280;34408;51.426;5.444;2023-11-21T00:57:16;101049.53;;;10.38;69.82
48614;BME280;34408;51.426;5.444;2023-11-21T00:59:44;101046.03;;;10.38;69.74
48614;BME280;34408;51.426;5.444;2023-11-21T01:02:11;101048.72;;;10.38;69.74
48614;BME280;34408;51.426;5.444;2023-11-21T01:04:39;101054.31;;;10.36;69.86
48614;BME280;34408;51.426;5.444;2023-11-21T01:07:07;101055.34;;;10.35;69.61
48614;BME280;34408;51.426;5.444;2023-11-21T01:09:35;101059.06;;;10.34;69.68
48614;BME280;34408;51.426;5.444;2023-11-21T01:12:05;101057.44;;;10.33;69.62
48614;BME280;34408;51.426;5.444;2023-11-21T01:14:33;101070.66;;;10.35;69.54
48614;BME280;34408;51.426;5.444;2023-11-21T01:17:03;101072.94;;;10.31;69.65
48614;BME280;34408;51.426;5.444;2023-11-21T01:19:31;101072.09;;;10.31;69.45
48614;BME280;34408;51.426;5.444;2023-11-21T01:21:59;101077.47;;;10.31;69.36
48614;BME280;34408;51.426;5.444;2023-11-21T01:24:27;101069.63;;;10.29;69.31
48614;BME280;34408;51.426;5.444;2023-11-21T01:26:55;101075.22;;;10.28;69.33
48614;BME280;34408;51.426;5.444;2023-11-21T01:29:24;101080.59;;;10.28;69.41
48614;BME280;34408;51.426;5.444;2023-11-21T01:31:51;101082.47;;;10.27;69.42
48614;BME280;34408;51.426;5.444;2023-11-21T01:34:19;101086.19;;;10.26;69.34
48614;BME280;34408;51.426;5.444;2023-11-21T01:36:47;101079.78;;;10.27;69.34
48614;BME280;34408;51.426;5.444;2023-11-21T01:39:15;101082.47;;;10.27;69.13
48614;BME280;34408;51.426;5.444;2023-11-21T01:41:50;101098.56;;;10.27;69.36
48614;BME280;34408;51.426;5.444;2023-11-21T01:44:18;101096.94;;;10.26;69.07
48614;BME280;34408;51.426;5.444;2023-11-21T01:46:48;101097.97;;;10.25;69.01
48614;BME280;34408;51.426;5.444;2023-11-21T01:49:16;101095.50;;;10.24;68.85
48614;BME280;34408;51.426;5.444;2023-11-21T01:51:46;101102.50;;;10.25;68.95
48614;BME280;34408;51.426;5.444;2023-11-21T01:54:16;101090.13;;;10.24;69.05
48614;BME280;34408;51.426;5.444;2023-11-21T01:56:46;101093.03;;;10.22;68.97
48614;BME280;34408;51.426;5.444;2023-11-21T01:59:18;101090.34;;;10.22;68.71
48614;BME280;34408;51.426;5.444;2023-11-21T02:01:48;101093.03;;;10.22;68.92
48614;BME280;34408;51.426;5.444;2023-11-21T02:04:18;101086.00;;;10.21;68.71
48614;BME280;34408;51.426;5.444;2023-11-21T02:06:46;101091.38;;;10.21;68.83
48614;BME280;34408;51.426;5.444;2023-11-21T02:09:13;101104.81;;;10.21;68.88
48614;BME280;34408;51.426;5.444;2023-11-21T02:11:42;101098.78;;;10.19;68.99
48614;BME280;34408;51.426;5.444;2023-11-21T02:14:10;101100.88;;;10.17;68.81
48614;BME280;34408;51.426;5.444;2023-11-21T02:16:37;101103.34;;;10.19;68.65
48614;BME280;34408;51.426;5.444;2023-11-21T02:19:07;101113.47;;;10.17;69.03
48614;BME280;34408;51.426;5.444;2023-11-21T02:21:37;101115.31;;;10.16;69.16
48614;BME280;34408;51.426;5.444;2023-11-21T02:24:08;101115.53;;;10.15;69.28
48614;BME280;34408;51.426;5.444;2023-11-21T02:26:36;101122.78;;;10.14;69.48
48614;BME280;34408;51.426;5.444;2023-11-21T02:29:04;101114.75;;;10.07;69.40
48614;BME280;34408;51.426;5.444;2023-11-21T02:31:32;101125.47;;;10.14;69.52
48614;BME280;34408;51.426;5.444;2023-11-21T02:34:00;101127.31;;;10.14;69.52
48614;BME280;34408;51.426;5.444;2023-11-21T02:36:29;101127.31;;;10.14;69.60
48614;BME280;34408;51.426;5.444;2023-11-21T02:38:57;101129.41;;;10.11;69.68
48614;BME280;34408;51.426;5.444;2023-11-21T02:41:26;101137.44;;;10.11;69.70
48614;BME280;34408;51.426;5.444;2023-11-21T02:43:55;101138.47;;;10.10;69.78
48614;BME280;34408;51.426;5.444;2023-11-21T02:46:22;101139.53;;;10.09;69.60
48614;BME280;34408;51.426;5.444;2023-11-21T02:48:50;101140.56;;;10.08;69.71
48614;BME280;34408;51.426;5.444;2023-11-21T02:51:20;101138.69;;;10.09;69.78
48614;BME280;34408;51.426;5.444;2023-11-21T02:53:48;101134.34;;;10.08;69.76
48614;BME280;34408;51.426;5.444;2023-11-21T02:56:17;101131.06;;;10.06;69.75
48614;BME280;34408;51.426;5.444;2023-11-21T02:58:46;101134.56;;;10.06;69.73
48614;BME280;34408;51.426;5.444;2023-11-21T03:01:14;101137.25;;;10.06;69.68
48614;BME280;34408;51.426;5.444;2023-11-21T03:03:43;101135.59;;;10.05;69.87
48614;BME280;34408;51.426;5.444;2023-11-21T03:06:12;101132.91;;;10.05;69.74
48614;BME280;34408;51.426;5.444;2023-11-21T03:08:40;101129.41;;;10.05;69.78
48614;BME280;34408;51.426;5.444;2023-11-21T03:11:08;101134.78;;;10.05;69.81
48614;BME280;34408;51.426;5.444;2023-11-21T03:13:36;101136.66;;;10.04;69.84
48614;BME280;34408;51.426;5.444;2023-11-21T03:16:06;101140.16;;;10.05;69.88
48614;BME280;34408;51.426;5.444;2023-11-21T03:18:34;101144.91;;;10.03;69.80
48614;BME280;34408;51.426;5.444;2023-11-21T03:21:03;101140.38;;;10.03;69.81
48614;BME280;34408;51.426;5.444;2023-11-21T03:23:31;101144.09;;;10.02;70.19
48614;BME280;34408;51.426;5.444;2023-11-21T03:25:59;101148.41;;;10.03;69.91
48614;BME280;34408;51.426;5.444;2023-11-21T03:28:27;101138.94;;;9.94;70.00
48614;BME280;34408;51.426;5.444;2023-11-21T03:30:56;101150.50;;;10.01;69.89
48614;BME280;34408;51.426;5.444;2023-11-21T03:33:26;101156.69;;;10.02;69.99
48614;BME280;34408;51.426;5.444;2023-11-21T03:35:53;101155.03;;;10.01;70.03
48614;BME280;34408;51.426;5.444;2023-11-21T03:38:21;101157.50;;;10.02;69.94
48614;BME280;34408;51.426;5.444;2023-11-21T03:40:49;101154.00;;;10.02;69.91
48614;BME280;34408;51.426;5.444;2023-11-21T03:43:17;101159.38;;;10.02;70.01
48614;BME280;34408;51.426;5.444;2023-11-21T03:45:45;101162.06;;;10.02;70.13
48614;BME280;34408;51.426;5.444;2023-11-21T03:48:13;101154.00;;;10.02;69.79
48614;BME280;34408;51.426;5.444;2023-11-21T03:50:42;101155.66;;;10.03;69.90
48614;BME280;34408;51.426;5.444;2023-11-21T03:53:10;101154.00;;;10.02;69.99
48614;BME280;34408;51.426;5.444;2023-11-21T03:55:37;101158.53;;;10.01;70.04
48614;BME280;34408;51.426;5.444;2023-11-21T03:58:05;101158.53;;;10.01;70.04
48614;BME280;34408;51.426;5.444;2023-11-21T04:00:33;101165.56;;;10.02;69.93
48614;BME280;34408;51.426;5.444;2023-11-21T04:03:01;101169.06;;;10.03;69.95
48614;BME280;34408;51.426;5.444;2023-11-21T04:05:29;101164.13;;;10.00;70.09
48614;BME280;34408;51.426;5.444;2023-11-21T04:07:58;101166.81;;;10.00;70.14
48614;BME280;34408;51.426;5.444;2023-11-21T04:10:26;101179.41;;;9.99;70.06
48614;BME280;34408;51.426;5.444;2023-11-21T04:12:55;101170.53;;;9.99;70.09
48614;BME280;34408;51.426;5.444;2023-11-21T04:15:23;101186.44;;;10.00;70.19
48614;BME280;34408;51.426;5.444;2023-11-21T04:17:50;101189.13;;;10.00;70.02
48614;BME280;34408;51.426;5.444;2023-11-21T04:20:18;101199.25;;;9.98;70.05
48614;BME280;34408;51.426;5.444;2023-11-21T04:22:46;101193.03;;;9.98;70.21
48614;BME280;34408;51.426;5.444;2023-11-21T04:25:16;101201.31;;;9.96;70.24
48614;BME280;34408;51.426;5.444;2023-11-21T04:27:45;101199.03;;;9.93;69.87
48614;BME280;34408;51.426;5.444;2023-11-21T04:30:14;101201.31;;;9.96;69.96
48614;BME280;34408;51.426;5.444;2023-11-21T04:32:41;101200.47;;;9.96;69.93
48614;BME280;34408;51.426;5.444;2023-11-21T04:35:10;101207.09;;;9.93;70.15
48614;BME280;34408;51.426;5.444;2023-11-21T04:37:37;101211.44;;;9.94;70.17
48614;BME280;34408;51.426;5.444;2023-11-21T04:40:07;101218.66;;;9.94;70.14
48614;BME280;34408;51.426;5.444;2023-11-21T04:42:37;101221.56;;;9.92;70.19
48614;BME280;34408;51.426;5.444;2023-11-21T04:45:06;101225.06;;;9.93;70.06
48614;BME280;34408;51.426;5.444;2023-11-21T04:47:36;101226.09;;;9.92;70.17
48614;BME280;34408;51.426;5.444;2023-11-21T04:50:05;101235.19;;;9.91;70.16
48614;BME280;34408;51.426;5.444;2023-11-21T04:52:33;101213.94;;;9.76;70.13
48614;BME280;34408;51.426;5.444;2023-11-21T04:55:01;101236.22;;;9.90;70.11
48614;BME280;34408;51.426;5.444;2023-11-21T04:57:29;101243.44;;;9.89;70.17
48614;BME280;34408;51.426;5.444;2023-11-21T04:59:58;101246.13;;;9.89;69.96
48614;BME280;34408;51.426;5.444;2023-11-21T05:02:26;101234.56;;;9.82;70.13
48614;BME280;34408;51.426;5.444;2023-11-21T05:05:01;101245.31;;;9.89;70.46
48614;BME280;34408;51.426;5.444;2023-11-21T05:07:32;101242.84;;;9.87;70.26
48614;BME280;34408;51.426;5.444;2023-11-21T05:10:04;101227.75;;;9.73;70.13
48614;BME280;34408;51.426;5.444;2023-11-21T05:12:34;101251.91;;;9.86;70.16
48614;BME280;34408;51.426;5.444;2023-11-21T05:15:06;101250.06;;;9.87;70.38
48614;BME280;34408;51.426;5.444;2023-11-21T05:17:36;101251.09;;;9.86;70.17
48614;BME280;34408;51.426;5.444;2023-11-21T05:20:06;101237.66;;;9.86;70.35
48614;BME280;34408;51.426;5.444;2023-11-21T05:22:36;101236.84;;;9.85;70.01
48614;BME280;34408;51.426;5.444;2023-11-21T05:25:05;101249.44;;;9.85;70.23
48614;BME280;34408;51.426;5.444;2023-11-21T05:27:34;101247.38;;;9.80;70.33
48614;BME280;34408;51.426;5.444;2023-11-21T05:30:05;101257.69;;;9.83;70.32
48614;BME280;34408;51.426;5.444;2023-11-21T05:32:33;101258.53;;;9.84;70.41
48614;BME280;34408;51.426;5.444;2023-11-21T05:35:01;101263.91;;;9.84;70.26
48614;BME280;34408;51.426;5.444;2023-11-21T05:37:29;101263.06;;;9.83;70.31
48614;BME280;34408;51.426;5.444;2023-11-21T05:39:57;101268.22;;;9.85;70.22
48614;BME280;34408;51.426;5.444;2023-11-21T05:42:26;101269.06;;;9.85;70.09
48614;BME280;34408;51.426;5.444;2023-11-21T05:44:54;101278.16;;;9.84;70.06
48614;BME280;34408;51.426;5.444;2023-11-21T05:47:23;101280.63;;;9.86;70.10
48614;BME280;34408;51.426;5.444;2023-11-21T05:49:52;101284.13;;;9.86;69.99
48614;BME280;34408;51.426;5.444;2023-11-21T05:52:20;101286.81;;;9.86;70.00
48614;BME280;34408;51.426;5.444;2023-11-21T05:54:48;101283.31;;;9.86;70.23
48614;BME280;34408;51.426;5.444;2023-11-21T05:57:16;101289.50;;;9.86;69.99
48614;BME280;34408;51.426;5.444;2023-11-21T05:59:44;101298.59;;;9.85;70.05
48614;BME280;34408;51.426;5.444;2023-11-21T06:02:12;101292.19;;;9.86;69.97
48614;BME280;34408;51.426;5.444;2023-11-21T06:04:41;101298.59;;;9.85;70.08
48614;BME280;34408;51.426;5.444;2023-11-21T06:07:09;101298.38;;;9.87;70.04
48614;BME280;34408;51.426;5.444;2023-11-21T06:09:37;101307.25;;;9.87;69.98
48614;BME280;34408;51.426;5.444;2023-11-21T06:12:05;101305.59;;;9.86;70.02
48614;BME280;34408;51.426;5.444;2023-11-21T06:14:33;101317.38;;;9.85;70.11
48614;BME280;34408;51.426;5.444;2023-11-21T06:17:01;101312.00;;;9.85;69.96
48614;BME280;34408;51.426;5.444;2023-11-21T06:19:30;101313.66;;;9.86;70.21
48614;BME280;34408;51.426;5.444;2023-11-21T06:21:59;101313.66;;;9.86;70.07
48614;BME280;34408;51.426;5.444;2023-11-21T06:24:28;101322.75;;;9.85;70.21
48614;BME280;34408;51.426;5.444;2023-11-21T06:26:55;101319.25;;;9.85;70.08
48614;BME280;34408;51.426;5.444;2023-11-21T06:29:23;101321.91;;;9.85;70.22
48614;BME280;34408;51.426;5.444;2023-11-21T06:31:51;101325.63;;;9.84;70.16
48614;BME280;34408;51.426;5.444;2023-11-21T06:34:19;101331.00;;;9.84;70.46
48614;BME280;34408;51.426;5.444;2023-11-21T06:36:48;101334.72;;;9.83;70.13
48614;BME280;34408;51.426;5.444;2023-11-21T06:39:17;101330.38;;;9.82;70.41
48614;BME280;34408;51.426;5.444;2023-11-21T06:41:45;101335.75;;;9.82;70.32
48614;BME280;34408;51.426;5.444;2023-11-21T06:44:12;101334.72;;;9.83;70.53
48614;BME280;34408;51.426;5.444;2023-11-21T06:46:40;101336.59;;;9.82;70.49
48614;BME280;34408;51.426;5.444;2023-11-21T06:49:09;101350.00;;;9.82;70.50
48614;BME280;34408;51.426;5.444;2023-11-21T06:51:37;101341.13;;;9.82;70.64
48614;BME280;34408;51.426;5.444;2023-11-21T06:54:05;101344.84;;;9.81;70.61
48614;BME280;34408;51.426;5.444;2023-11-21T06:56:35;101343.59;;;9.76;70.83
48614;BME280;34408;51.426;5.444;2023-11-21T06:59:02;101343.78;;;9.75;71.19
48614;BME280;34408;51.426;5.444;2023-11-21T07:01:32;101350.81;;;9.76;70.83
48614;BME280;34408;51.426;5.444;2023-11-21T07:04:05;101357.84;;;9.77;71.02
48614;BME280;34408;51.426;5.444;2023-11-21T07:06:34;101360.53;;;9.77;70.96
48614;BME280;34408;51.426;5.444;2023-11-21T07:09:02;101353.31;;;9.77;70.89
48614;BME280;34408;51.426;5.444;2023-11-21T07:11:30;101361.34;;;9.77;71.19
48614;BME280;34408;51.426;5.444;2023-11-21T07:14:00;101380.13;;;9.77;71.20
48614;BME280;34408;51.426;5.444;2023-11-21T07:16:34;101380.34;;;9.76;71.02
48614;BME280;34408;51.426;5.444;2023-11-21T07:19:04;101379.50;;;9.75;71.11
48614;BME280;34408;51.426;5.444;2023-11-21T07:21:32;101384.88;;;9.75;70.96
48614;BME280;34408;51.426;5.444;2023-11-21T07:24:00;101390.25;;;9.75;71.08
48614;BME280;34408;51.426;5.444;2023-11-21T07:26:28;101396.44;;;9.76;71.15
48614;BME280;34408;51.426;5.444;2023-11-21T07:28:56;101396.44;;;9.76;71.28
48614;BME280;34408;51.426;5.444;2023-11-21T07:31:26;101404.50;;;9.76;71.29
48614;BME280;34408;51.426;5.444;2023-11-21T07:33:53;101415.03;;;9.77;71.08
48614;BME280;34408;51.426;5.444;2023-11-21T07:36:24;101411.53;;;9.77;71.25
48614;BME280;34408;51.426;5.444;2023-11-21T07:38:52;101413.19;;;9.78;71.19
48614;BME280;34408;51.426;5.444;2023-11-21T07:41:20;101412.34;;;9.77;71.36
48614;BME280;34408;51.426;5.444;2023-11-21T07:43:57;101413.19;;;9.78;71.40
48614;BME280;34408;51.426;5.444;2023-11-21T07:46:27;101426.59;;;9.78;71.43
48614;BME280;34408;51.426;5.444;2023-11-21T07:48:55;101426.59;;;9.78;71.36
48614;BME280;34408;51.426;5.444;2023-11-21T07:51:23;101431.78;;;9.79;71.58
48614;BME280;34408;51.426;5.444;2023-11-21T07:53:50;101431.56;;;9.81;71.35
48614;BME280;34408;51.426;5.444;2023-11-21T07:56:18;101436.94;;;9.81;71.40
48614;BME280;34408;51.426;5.444;2023-11-21T07:58:46;101443.97;;;9.82;71.35
48614;BME280;34408;51.426;5.444;2023-11-21T08:01:15;101443.97;;;9.82;71.45
48614;BME280;34408;51.426;5.444;2023-11-21T08:03:45;101446.63;;;9.82;71.53
48614;BME280;34408;51.426;5.444;2023-11-21T08:06:13;101447.47;;;9.83;71.75
48614;BME280;34408;51.426;5.444;2023-11-21T08:08:42;101447.47;;;9.83;71.60
48614;BME280;34408;51.426;5.444;2023-11-21T08:11:10;101456.34;;;9.83;71.70
48614;BME280;34408;51.426;5.444;2023-11-21T08:13:38;101457.19;;;9.84;71.63
48614;BME280;34408;51.426;5.444;2023-11-21T08:16:07;101454.69;;;9.82;71.75
48614;BME280;34408;51.426;5.444;2023-11-21T08:18:35;101452.84;;;9.83;71.91
48614;BME280;34408;51.426;5.444;2023-11-21T08:21:04;101447.47;;;9.83;71.73
48614;BME280;34408;51.426;5.444;2023-11-21T08:23:32;101453.66;;;9.83;71.82
48614;BME280;34408;51.426;5.444;2023-11-21T08:26:00;101451.81;;;9.84;71.73
48614;BME280;34408;51.426;5.444;2023-11-21T08:28:32;101466.06;;;9.84;71.77
48614;BME280;34408;51.426;5.444;2023-11-21T08:31:00;101463.56;;;9.83;71.85
48614;BME280;34408;51.426;5.444;2023-11-21T08:33:28;101470.59;;;9.84;71.96
48614;BME280;34408;51.426;5.444;2023-11-21T08:35:56;101472.47;;;9.83;71.96
48614;BME280;34408;51.426;5.444;2023-11-21T08:38:25;101478.66;;;9.84;71.91
48614;BME280;34408;51.426;5.444;2023-11-21T08:40:53;101481.34;;;9.84;72.02
48614;BME280;34408;51.426;5.444;2023-11-21T08:43:21;101485.88;;;9.83;72.06
48614;BME280;34408;51.426;5.444;2023-11-21T08:45:48;101495.59;;;9.84;72.20
48614;BME280;34408;51.426;5.444;2023-11-21T08:48:16;101494.75;;;9.84;72.13
48614;BME280;34408;51.426;5.444;2023-11-21T08:50:44;101483.00;;;9.85;72.27
48614;BME280;34408;51.426;5.444;2023-11-21T08:53:12;101490.03;;;9.86;72.33
48614;BME280;34408;51.426;5.444;2023-11-21T08:55:41;101495.38;;;9.86;72.31
48614;BME280;34408;51.426;5.444;2023-11-21T08:58:10;101496.63;;;9.83;72.27
48614;BME280;34408;51.426;5.444;2023-11-21T09:00:39;101495.59;;;9.84;72.12
48614;BME280;34408;51.426;5.444;2023-11-21T09:03:07;101504.47;;;9.85;72.34
48614;BME280;34408;51.426;5.444;2023-11-21T09:05:37;101502.63;;;9.85;72.25
48614;BME280;34408;51.426;5.444;2023-11-21T09:08:06;101501.78;;;9.85;72.55
48614;BME280;34408;51.426;5.444;2023-11-21T09:10:34;101506.13;;;9.86;72.54
48614;BME280;34408;51.426;5.444;2023-11-21T09:13:05;101502.63;;;9.85;72.27
48614;BME280;34408;51.426;5.444;2023-11-21T09:15:35;101506.97;;;9.86;72.42
48614;BME280;34408;51.426;5.444;2023-11-21T09:18:03;101501.59;;;9.86;72.58
48614;BME280;34408;51.426;5.444;2023-11-21T09:20:31;101512.13;;;9.88;72.47
48614;BME280;34408;51.426;5.444;2023-11-21T09:22:59;101506.75;;;9.88;72.44
48614;BME280;34408;51.426;5.444;2023-11-21T09:25:27;101517.50;;;9.88;72.64
48614;BME280;34408;51.426;5.444;2023-11-21T09:27:55;101517.50;;;9.88;72.77
48614;BME280;34408;51.426;5.444;2023-11-21T09:30:25;101526.38;;;9.88;72.67
48614;BME280;34408;51.426;5.444;2023-11-21T09:32:53;101524.53;;;9.89;72.81
48614;BME280;34408;51.426;5.444;2023-11-21T09:35:21;101529.88;;;9.89;72.83
48614;BME280;34408;51.426;5.444;2023-11-21T09:37:49;101531.75;;;9.88;72.83
48614;BME280;34408;51.426;5.444;2023-11-21T09:40:21;101535.25;;;9.89;72.83
48614;BME280;34408;51.426;5.444;2023-11-21T09:42:54;101542.69;;;9.87;73.07
48614;BME280;34408;51.426;5.444;2023-11-21T09:45:27;101543.50;;;9.87;72.94
48614;BME280;34408;51.426;5.444;2023-11-21T09:47:56;101542.88;;;9.85;72.96
48614;BME280;34408;51.426;5.444;2023-11-21T09:50:24;101552.03;;;9.97;73.12
48614;BME280;34408;51.426;5.444;2023-11-21T09:52:57;101556.78;;;10.02;73.10
48614;BME280;34408;51.426;5.444;2023-11-21T09:55:27;101559.69;;;10.00;73.30
48614;BME280;34408;51.426;5.444;2023-11-21T09:57:56;101568.38;;;10.02;73.78
48614;BME280;34408;51.426;5.444;2023-11-21T10:00:26;101577.88;;;10.05;73.76
48614;BME280;34408;51.426;5.444;2023-11-21T10:02:56;101567.53;;;10.02;73.46
48614;BME280;34408;51.426;5.444;2023-11-21T10:05:25;101578.28;;;10.02;73.85
48614;BME280;34408;51.426;5.444;2023-11-21T10:07:55;101579.31;;;10.01;74.02
48614;BME280;34408;51.426;5.444;2023-11-21T10:10:25;101589.03;;;10.02;74.26
48614;BME280;34408;51.426;5.444;2023-11-21T10:12:56;101591.50;;;10.03;74.26
48614;BME280;34408;51.426;5.444;2023-11-21T10:15:26;101598.53;;;10.04;74.54
48614;BME280;34408;51.426;5.444;2023-11-21T10:17:55;101589.44;;;10.05;74.52
48614;BME280;34408;51.426;5.444;2023-11-21T10:20:23;101594.81;;;10.05;74.59
48614;BME280;34408;51.426;5.444;2023-11-21T10:22:52;101594.63;;;10.07;74.73
48614;BME280;34408;51.426;5.444;2023-11-21T10:25:20;101597.09;;;10.08;74.47
48614;BME280;34408;51.426;5.444;2023-11-21T10:27:48;101589.25;;;10.07;74.54
48614;BME280;34408;51.426;5.444;2023-11-21T10:30:18;101595.06;;;10.10;74.70
48614;BME280;34408;51.426;5.444;2023-11-21T10:32:47;101596.28;;;10.08;74.61
48614;BME280;34408;51.426;5.444;2023-11-21T10:35:15;101607.44;;;10.11;74.85
48614;BME280;34408;51.426;5.444;2023-11-21T10:37:43;101600.03;;;10.14;75.15
48614;BME280;34408;51.426;5.444;2023-11-21T10:40:11;101605.19;;;10.15;75.21
48614;BME280;34408;51.426;5.444;2023-11-21T10:42:39;101605.38;;;10.14;75.34
48614;BME280;34408;51.426;5.444;2023-11-21T10:45:09;101597.34;;;10.14;75.48
48614;BME280;34408;51.426;5.444;2023-11-21T10:47:41;101600.03;;;10.14;75.26
48614;BME280;34408;51.426;5.444;2023-11-21T10:50:10;101602.69;;;10.14;75.97
48614;BME280;34408;51.426;5.444;2023-11-21T10:52:39;101602.91;;;10.12;76.01
48614;BME280;34408;51.426;5.444;2023-11-21T10:55:16;101604.56;;;10.13;76.32
48614;BME280;34408;51.426;5.444;2023-11-21T10:57:47;101607.03;;;10.15;76.37
48614;BME280;34408;51.426;5.444;2023-11-21T11:00:16;101601.88;;;10.13;76.38
48614;BME280;34408;51.426;5.444;2023-11-21T11:02:49;101615.09;;;10.15;76.36
48614;BME280;34408;51.426;5.444;2023-11-21T11:05:19;101607.47;;;10.18;76.86
48614;BME280;34408;51.426;5.444;2023-11-21T11:07:50;101609.78;;;10.21;77.02
48614;BME280;34408;51.426;5.444;2023-11-21T11:10:21;101606.84;;;10.16;77.06
48614;BME280;34408;51.426;5.444;2023-11-21T11:12:49;101609.59;;;10.23;77.16
48614;BME280;34408;51.426;5.444;2023-11-21T11:15:19;101615.78;;;10.23;76.91
48614;BME280;34408;51.426;5.444;2023-11-21T11:17:48;101606.28;;;10.21;77.49
48614;BME280;34408;51.426;5.444;2023-11-21T11:20:16;101621.16;;;10.23;77.16
48614;BME280;34408;51.426;5.444;2023-11-21T11:22:56;101623.84;;;10.23;77.72
48614;BME280;34408;51.426;5.444;2023-11-21T11:25:38;101623.84;;;10.23;78.41
48614;BME280;34408;51.426;5.444;2023-11-21T11:28:14;101627.38;;;10.24;77.65
48614;BME280;34408;51.426;5.444;2023-11-21T11:30:53;101630.06;;;10.24;77.93
48614;BME280;34408;51.426;5.444;2023-11-21T11:33:34;101642.47;;;10.25;78.13
48614;BME280;34408;51.426;5.444;2023-11-21T11:36:06;101643.50;;;10.24;78.06
48614;BME280;34408;51.426;5.444;2023-11-21T11:38:37;101641.63;;;10.24;78.16
48614;BME280;34408;51.426;5.444;2023-11-21T11:41:06;101642.47;;;10.25;78.09
48614;BME280;34408;51.426;5.444;2023-11-21T11:43:35;101645.97;;;10.25;77.81
48614;BME280;34408;51.426;5.444;2023-11-21T11:46:11;101645.78;;;10.27;77.67
48614;BME280;34408;51.426;5.444;2023-11-21T11:48:41;101645.56;;;10.28;77.70
48614;BME280;34408;51.426;5.444;2023-11-21T11:51:11;101640.19;;;10.28;77.28
48614;BME280;34408;51.426;5.444;2023-11-21T11:53:43;101637.31;;;10.30;77.20
48614;BME280;34408;51.426;5.444;2023-11-21T11:56:26;101656.94;;;10.30;76.93
48614;BME280;34408;51.426;5.444;2023-11-21T11:58:56;101661.50;;;10.30;77.38
48614;BME280;34408;51.426;5.444;2023-11-21T12:01:26;101661.88;;;10.27;77.36
48614;BME280;34408;51.426;5.444;2023-11-21T12:04:25;101666.63;;;10.25;77.28
48614;BME280;34408;51.426;5.444;2023-11-21T12:07:02;101669.53;;;10.23;77.58
48614;BME280;34408;51.426;5.444;2023-11-21T12:09:32;101676.56;;;10.24;77.58
48614;BME280;34408;51.426;5.444;2023-11-21T12:12:00;101676.75;;;10.23;77.48
48614;BME280;34408;51.426;5.444;2023-11-21T12:14:28;101689.59;;;10.27;78.28
48614;BME280;34408;51.426;5.444;2023-11-21T12:16:58;101688.56;;;10.28;78.70
48614;BME280;34408;51.426;5.444;2023-11-21T12:19:26;101689.38;;;10.29;78.22
48614;BME280;34408;51.426;5.444;2023-11-21T12:21:54;101689.59;;;10.27;78.08
48614;BME280;34408;51.426;5.444;2023-11-21T12:24:22;101699.53;;;10.33;78.10
48614;BME280;34408;51.426;5.444;2023-11-21T12:26:51;101696.44;;;10.36;78.27
48614;BME280;34408;51.426;5.444;2023-11-21T12:29:19;101697.69;;;10.34;78.13
48614;BME280;34408;51.426;5.444;2023-11-21T12:31:49;101699.53;;;10.33;78.04
48614;BME280;34408;51.426;5.444;2023-11-21T12:34:17;101701.19;;;10.34;78.30
48614;BME280;34408;51.426;5.444;2023-11-21T12:36:44;101707.19;;;10.36;78.21
48614;BME280;34408;51.426;5.444;2023-11-21T12:39:13;101710.72;;;10.37;77.92
48614;BME280;34408;51.426;5.444;2023-11-21T12:41:41;101714.22;;;10.37;78.01
48614;BME280;34408;51.426;5.444;2023-11-21T12:44:12;101721.66;;;10.35;78.19
48614;BME280;34408;51.426;5.444;2023-11-21T12:46:42;101713.16;;;10.32;78.37
48614;BME280;34408;51.426;5.444;2023-11-21T12:49:12;101715.66;;;10.33;78.44
48614;BME280;34408;51.426;5.444;2023-11-21T12:51:44;101706.78;;;10.33;78.00
48614;BME280;34408;51.426;5.444;2023-11-21T12:54:13;101717.53;;;10.33;78.22
48614;BME280;34408;51.426;5.444;2023-11-21T12:56:45;101718.16;;;10.35;78.43
48614;BME280;34408;51.426;5.444;2023-11-21T12:59:15;101718.16;;;10.35;78.09
48614;BME280;34408;51.426;5.444;2023-11-21T13:01:45;101713.59;;;10.35;78.54
48614;BME280;34408;51.426;5.444;2023-11-21T13:04:13;101714.44;;;10.36;78.13